Terminal Aerodrome Forecast
Issued by NWS

Current Version | Previous Version | Text Only | Print | Product List | Glossary On
Versions: 1 2 3 4 5 6 7 8 9 10 11 12 13 14
000
FTUS44 KLUB 291124
TAFCDS
TAF
KCDS 291124Z 2912/3012 01011KT P6SM BKN250
     FM291500 01017G25KT P6SM BKN250
     FM292300 04007KT P6SM OVC150=

USA.gov is the U.S. government's official web portal to all federal, state and local government web resources and services.